»·PEaware :: FFT1005 KBZN-KDEN

FFT1005 :: KBZN-KDEN

FLIGHT INFORMATION

Flight Status: Arrived
Operator:
Frontier Airlines
More flights by this operator :: More flights under this callsign
Pilot: Hayden Y. (1870)
Aircraft: AIRBUS A320
(A320)
More flights by this aircraft type
Origin: KBZN Gallatin
United States
Destination: KDEN Denver Intl
United States
More flights between these airports :: More routes between these airports
Route: BOBKT4 BOY TOFUU FLATI1
File this flight plan on PilotEdge
Remarks: RMK / SIMBRIEF
Altitude:
(Current/Filed)
35,000ft
Speed:
(Current/Filed)
443kts
Departed: 22-May-20 09:14 AM
Arrived: 22-May-20 10:31 AM
Distance/Time
Traveled:
455nm/1:17
Distance/Time
To Go:
Arrived

Flight Plot

Page will automatically refresh every two minutes.

Flight plan parsing failed; only flown route is shown


Map Options




Map Legend


Flown Route
Filed Route
Departure Airport
Arrival Airport
Navaid (VOR, NDB)
Fix

Horizontal Profiles

Position Reports

Time Latitude Longitude Heading Altitude Ground
Speed
22-May-20 08:38 45.778230 -111.159720 247 4485ft 0kts
22-May-20 08:39 45.778230 -111.159720 247 4485ft 0kts
22-May-20 08:40 45.778230 -111.159720 247 4485ft 0kts
22-May-20 08:41 45.778230 -111.159720 247 4485ft 0kts
22-May-20 08:42 45.778230 -111.159720 247 4485ft 0kts
22-May-20 08:43 45.778230 -111.159720 247 4485ft 0kts
22-May-20 08:44 45.778230 -111.159720 247 4485ft 0kts
22-May-20 08:45 45.778230 -111.159720 247 4485ft 0kts
22-May-20 08:46 45.778230 -111.159720 247 4485ft 0kts
22-May-20 08:47 45.778230 -111.159720 247 4485ft 0kts
22-May-20 08:48 45.778230 -111.159720 247 4485ft 0kts
22-May-20 08:49 45.778230 -111.159720 247 4485ft 0kts
22-May-20 08:50 45.778230 -111.159720 247 4485ft 0kts
22-May-20 08:51 45.778230 -111.159720 247 4485ft 0kts
22-May-20 08:52 45.778230 -111.159720 247 4485ft 0kts
22-May-20 08:52 45.778230 -111.159720 247 4485ft 0kts
22-May-20 08:54 45.778230 -111.159720 247 4485ft 0kts
22-May-20 08:55 45.778230 -111.159720 247 4485ft 0kts
22-May-20 08:55 45.778230 -111.159720 247 4485ft 0kts
22-May-20 08:57 45.778230 -111.159720 247 4485ft 0kts
22-May-20 08:57 45.778230 -111.159720 247 4485ft 0kts
22-May-20 08:58 45.778230 -111.159720 247 4485ft 0kts
22-May-20 08:59 45.778230 -111.159720 247 4485ft 0kts
22-May-20 09:00 45.778230 -111.159720 247 4485ft 0kts
22-May-20 09:01 45.778230 -111.159720 247 4485ft 0kts
22-May-20 09:02 45.778230 -111.159720 247 4485ft 0kts
22-May-20 09:03 45.778230 -111.159720 247 4485ft 0kts
22-May-20 09:04 45.778361 -111.159281 247 4485ft 2kts
22-May-20 09:05 45.778750 -111.159299 135 4485ft 2kts
22-May-20 09:06 45.778808 -111.159380 135 4485ft 0kts
22-May-20 09:07 45.778808 -111.159380 135 4485ft 0kts
22-May-20 09:08 45.778718 -111.159254 135 4485ft 2kts
22-May-20 09:09 45.778224 -111.157685 37 4485ft 4kts
22-May-20 09:10 45.781810 -111.161848 316 4485ft 19kts
22-May-20 09:11 45.785858 -111.167504 316 4485ft 18kts
22-May-20 09:12 45.787498 -111.167002 47 4485ft 6kts
22-May-20 09:13 45.784552 -111.161553 135 4485ft 94kts
22-May-20 09:14 45.753827 -111.116079 132 6286ft 170kts
22-May-20 09:15 45.713623 -111.059156 136 7408ft 233kts
22-May-20 09:16 45.663493 -110.979835 113 9192ft 298kts
22-May-20 09:17 45.652106 -110.859785 101 12062ft 316kts
22-May-20 09:18 45.604612 -110.758675 154 13765ft 337kts
22-May-20 09:19 45.521925 -110.685583 152 15848ft 355kts
22-May-20 09:20 45.439308 -110.607921 153 15985ft 355kts
22-May-20 09:21 45.356233 -110.531126 153 16840ft 359kts
22-May-20 09:22 45.271540 -110.452863 154 18943ft 369kts
22-May-20 09:23 45.183955 -110.372435 155 20777ft 380kts
22-May-20 09:24 45.093573 -110.289544 155 22455ft 391kts
22-May-20 09:25 45.001551 -110.205518 155 23219ft 396kts
22-May-20 09:26 44.910567 -110.111723 145 24693ft 416kts
22-May-20 09:27 44.825301 -109.999625 145 26024ft 423kts
22-May-20 09:28 44.737028 -109.886646 145 27266ft 431kts
22-May-20 09:29 44.647919 -109.772310 145 28379ft 437kts
22-May-20 09:30 44.557172 -109.656563 145 29391ft 444kts
22-May-20 09:31 44.465242 -109.539891 146 30506ft 445kts
22-May-20 09:32 44.373538 -109.423911 146 31711ft 442kts
22-May-20 09:33 44.282352 -109.309070 146 32756ft 441kts
22-May-20 09:34 44.191165 -109.194821 146 33763ft 438kts
22-May-20 09:35 44.100552 -109.081771 145 34596ft 438kts
22-May-20 09:36 44.009662 -108.968933 145 34922ft 437kts
22-May-20 09:37 43.918351 -108.855951 145 34913ft 440kts
22-May-20 09:38 43.826840 -108.743127 145 34902ft 440kts
22-May-20 09:39 43.735285 -108.630925 145 34897ft 440kts
22-May-20 09:40 43.643525 -108.518870 145 34892ft 439kts
22-May-20 09:41 43.551945 -108.407388 145 34884ft 439kts
22-May-20 09:42 43.458372 -108.301033 158 34862ft 427kts
22-May-20 09:43 43.347051 -108.254555 171 34856ft 416kts
22-May-20 09:44 43.235552 -108.210537 170 34861ft 418kts
22-May-20 09:45 43.123424 -108.167201 170 34885ft 419kts
22-May-20 09:46 43.011156 -108.123586 170 34902ft 419kts
22-May-20 09:47 42.898328 -108.080164 170 34859ft 421kts
22-May-20 09:48 42.785474 -108.036670 169 34870ft 422kts
22-May-20 09:49 42.671833 -107.993140 169 34881ft 424kts
22-May-20 09:50 42.558096 -107.949752 169 34886ft 427kts
22-May-20 09:51 42.443367 -107.906164 169 34975ft 427kts
22-May-20 09:52 42.329190 -107.862889 169 34967ft 428kts
22-May-20 09:53 42.214509 -107.819618 169 34972ft 428kts
22-May-20 09:54 42.099730 -107.776473 169 34965ft 428kts
22-May-20 09:55 41.985023 -107.733540 169 34972ft 428kts
22-May-20 09:56 41.870149 -107.690665 169 34958ft 429kts
22-May-20 09:57 41.768923 -107.604799 135 34969ft 450kts
22-May-20 09:58 41.686554 -107.477670 137 35005ft 451kts
22-May-20 09:59 41.602180 -107.353769 136 35035ft 452kts
22-May-20 10:00 41.518055 -107.229270 136 35028ft 452kts
22-May-20 10:01 41.434907 -107.106933 136 35004ft 452kts
22-May-20 10:02 41.350340 -106.982796 136 35007ft 452kts
22-May-20 10:03 41.265661 -106.859290 136 34993ft 450kts
22-May-20 10:04 41.181625 -106.736875 136 35008ft 445kts
22-May-20 10:05 41.097663 -106.615098 135 35060ft 451kts
22-May-20 10:06 41.012500 -106.492299 136 35084ft 452kts
22-May-20 10:07 40.927704 -106.370300 136 33029ft 451kts
22-May-20 10:08 40.845646 -106.249731 127 30892ft 437kts
22-May-20 10:09 40.793910 -106.106621 117 28739ft 426kts
22-May-20 10:10 40.744068 -105.967668 118 26622ft 412kts
22-May-20 10:11 40.696748 -105.834707 118 24574ft 399kts
22-May-20 10:12 40.649665 -105.704160 118 22591ft 387kts
22-May-20 10:13 40.604461 -105.578899 118 20790ft 372kts
22-May-20 10:14 40.561278 -105.459913 118 19543ft 346kts
22-May-20 10:15 40.520381 -105.347822 119 18289ft 335kts
22-May-20 10:16 40.480773 -105.239551 119 17100ft 321kts
22-May-20 10:17 40.446964 -105.132231 109 15875ft 319kts
22-May-20 10:18 40.421237 -105.020885 110 14673ft 317kts
22-May-20 10:19 40.395813 -104.915266 110 14175ft 283kts
22-May-20 10:20 40.373408 -104.821352 110 13429ft 264kts
22-May-20 10:21 40.345308 -104.735180 143 12865ft 255kts
22-May-20 10:22 40.286681 -104.683681 163 11576ft 248kts
22-May-20 10:23 40.219254 -104.683528 180 10255ft 241kts
22-May-20 10:24 40.154405 -104.683950 181 9973ft 216kts
22-May-20 10:25 40.100277 -104.684412 181 9019ft 210kts
22-May-20 10:26 40.041605 -104.685155 180 8258ft 208kts
22-May-20 10:27 39.986280 -104.685777 179 7185ft 180kts
22-May-20 10:28 39.940457 -104.686301 179 6320ft 160kts
22-May-20 10:29 39.896347 -104.686842 179 5464ft 157kts
22-May-20 10:30 39.876108 -104.685371 146 5445ft 17kts
22-May-20 10:31 39.872452 -104.683862 180 5445ft 15kts
22-May-20 10:33 39.867975 -104.683848 179 5445ft 17kts
22-May-20 10:34 39.862877 -104.683911 179 5445ft 21kts
22-May-20 10:35 39.856278 -104.683811 170 5445ft 17kts
22-May-20 10:36 39.855990 -104.680126 90 5445ft 14kts
22-May-20 10:37 39.855308 -104.675006 88 5445ft 16kts
22-May-20 10:38 39.855127 -104.670208 103 5445ft 6kts
22-May-20 10:39 39.854529 -104.670255 204 5445ft 0kts
22-May-20 10:40 39.854529 -104.670255 204 5445ft 0kts
22-May-20 10:41 39.854529 -104.670255 204 5445ft 0kts
22-May-20 10:42 39.854529 -104.670255 204 5445ft 0kts
22-May-20 10:43 39.854529 -104.670255 204 5445ft 0kts

Navigation Log

Ident Type
Flight plan parsing failed, navigation log unavailable